createdAt,value
2023-03-16T00:00:37.096Z,78.74
2023-03-16T00:03:05.313Z,78.80
2023-03-16T00:05:34.022Z,78.88
2023-03-16T00:08:02.960Z,78.85
2023-03-16T00:10:30.918Z,79.28
2023-03-16T00:12:59.968Z,79.66
2023-03-16T00:15:27.950Z,79.73
2023-03-16T00:17:57.894Z,79.70
2023-03-16T00:20:26.561Z,79.81
2023-03-16T00:22:54.623Z,79.72
2023-03-16T00:25:24.317Z,79.70
2023-03-16T00:27:53.211Z,80.02
2023-03-16T00:30:21.138Z,80.12
2023-03-16T00:32:50.197Z,79.88
2023-03-16T00:35:20.053Z,79.59
2023-03-16T00:37:48.657Z,79.39
2023-03-16T00:40:18.111Z,78.98
2023-03-16T00:42:46.081Z,78.63
2023-03-16T00:45:14.091Z,78.83
2023-03-16T00:47:43.699Z,78.50
2023-03-16T00:50:12.660Z,78.62
2023-03-16T00:52:43.773Z,78.50
2023-03-16T00:55:13.049Z,78.67
2023-03-16T00:57:41.556Z,78.35
2023-03-16T01:00:13.324Z,78.00
2023-03-16T01:02:41.356Z,77.78
2023-03-16T01:05:10.459Z,78.03
2023-03-16T01:07:39.487Z,77.12
2023-03-16T01:10:11.743Z,77.03
2023-03-16T01:12:41.692Z,77.57
2023-03-16T01:15:11.350Z,77.67
2023-03-16T01:17:39.774Z,78.39
2023-03-16T01:20:12.387Z,78.17
2023-03-16T01:22:40.534Z,77.81
2023-03-16T01:25:12.970Z,78.25
2023-03-16T01:27:43.870Z,78.33
2023-03-16T01:30:13.429Z,77.76
2023-03-16T01:32:42.404Z,77.56
2023-03-16T01:35:14.455Z,78.01
2023-03-16T01:37:42.773Z,77.49
2023-03-16T01:40:22.597Z,77.62
2023-03-16T01:43:01.847Z,77.96
2023-03-16T01:46:10.531Z,77.72
2023-03-16T01:48:45.886Z,77.30
2023-03-16T01:51:21.556Z,78.00
2023-03-16T01:53:54.662Z,77.91
2023-03-16T01:56:28.805Z,77.66
2023-03-16T01:59:00.124Z,77.09
2023-03-16T02:01:29.660Z,76.58
2023-03-16T02:04:06.517Z,76.94
2023-03-16T02:06:37.341Z,76.32
2023-03-16T02:09:06.430Z,76.84
2023-03-16T02:11:37.664Z,76.32
2023-03-16T02:14:14.169Z,76.16
2023-03-16T02:16:45.381Z,75.89
2023-03-16T02:19:21.636Z,75.84
2023-03-16T02:21:58.081Z,75.91
2023-03-16T02:24:27.779Z,75.74
2023-03-16T02:27:00.572Z,74.94
2023-03-16T02:29:57.686Z,74.16
2023-03-16T02:32:30.212Z,73.49
2023-03-16T02:35:00.529Z,72.75
2023-03-16T02:37:29.123Z,73.11
2023-03-16T02:39:57.815Z,73.42
2023-03-16T02:45:02.551Z,73.29
2023-03-16T02:47:40.563Z,73.20
2023-03-16T02:50:12.578Z,73.17
2023-03-16T02:52:41.643Z,73.19
2023-03-16T02:55:10.386Z,72.95
2023-03-16T02:57:38.468Z,72.32
2023-03-16T03:00:18.936Z,73.04
2023-03-16T03:02:52.599Z,72.58
2023-03-16T03:05:21.773Z,73.07
2023-03-16T03:07:49.828Z,73.41
2023-03-16T03:10:20.264Z,73.42
2023-03-16T03:12:49.840Z,73.70
2023-03-16T03:15:20.433Z,73.39
2023-03-16T03:18:04.568Z,73.12
2023-03-16T03:20:33.251Z,73.93
2023-03-16T03:23:01.366Z,73.51
2023-03-16T03:25:30.712Z,73.52
2023-03-16T03:28:00.248Z,74.04
2023-03-16T03:30:30.679Z,74.00
2023-03-16T03:32:58.468Z,73.91
2023-03-16T03:35:27.586Z,74.03
2023-03-16T03:37:57.127Z,74.73
2023-03-16T03:40:26.489Z,75.00
2023-03-16T03:42:59.850Z,74.91
2023-03-16T03:45:30.044Z,75.70
2023-03-16T03:47:58.393Z,75.61
2023-03-16T03:50:28.532Z,76.08
2023-03-16T03:53:18.982Z,75.90
2023-03-16T03:56:14.061Z,76.10
2023-03-16T03:58:42.510Z,75.90
2023-03-16T04:01:14.039Z,76.40
2023-03-16T04:03:45.276Z,76.18
2023-03-16T04:06:16.590Z,75.91
2023-03-16T04:08:44.817Z,76.03
2023-03-16T04:11:17.134Z,76.23
2023-03-16T04:13:45.935Z,76.77
2023-03-16T04:16:16.388Z,76.93
2023-03-16T04:18:48.082Z,76.54
2023-03-16T04:21:17.607Z,77.17
2023-03-16T04:23:49.121Z,77.49
2023-03-16T04:26:17.973Z,77.44
2023-03-16T04:28:48.327Z,77.51
2023-03-16T04:31:21.456Z,78.08
2023-03-16T04:33:50.987Z,77.85
2023-03-16T04:36:20.206Z,78.18
2023-03-16T04:38:48.892Z,78.12
2023-03-16T04:41:17.725Z,78.51
2023-03-16T04:43:55.221Z,78.59
2023-03-16T04:46:27.317Z,78.78
2023-03-16T04:49:00.255Z,79.20
2023-03-16T04:51:30.033Z,79.71
2023-03-16T04:54:09.639Z,79.53
2023-03-16T04:56:41.625Z,79.70
2023-03-16T04:59:30.339Z,79.64
2023-03-16T05:02:06.870Z,79.78
2023-03-16T05:04:36.106Z,79.70
2023-03-16T05:07:04.942Z,80.10
2023-03-16T05:09:38.668Z,80.24
2023-03-16T05:12:07.210Z,80.53
2023-03-16T05:14:36.507Z,80.30
2023-03-16T05:17:23.542Z,80.32
2023-03-16T05:19:52.553Z,80.16
2023-03-16T05:22:22.270Z,80.41
2023-03-16T05:25:15.009Z,79.93
2023-03-16T05:27:46.397Z,79.77
2023-03-16T05:30:21.035Z,80.09
2023-03-16T05:32:51.187Z,79.58
2023-03-16T05:35:23.703Z,79.56
2023-03-16T05:37:54.115Z,79.80
2023-03-16T05:40:23.841Z,79.91
2023-03-16T05:43:01.067Z,79.67
2023-03-16T05:45:32.422Z,79.71
2023-03-16T05:48:16.003Z,79.82
2023-03-16T05:50:48.140Z,79.78
2023-03-16T05:53:19.504Z,79.70
2023-03-16T05:55:53.560Z,79.93
2023-03-16T05:58:22.344Z,79.90
2023-03-16T06:00:51.704Z,79.85
2023-03-16T06:03:26.984Z,79.74
2023-03-16T06:05:56.391Z,79.72
2023-03-16T06:08:32.181Z,80.34
2023-03-16T06:11:10.592Z,79.67
2023-03-16T06:13:40.064Z,79.88
2023-03-16T06:16:09.344Z,79.81
2023-03-16T06:18:41.747Z,79.43
2023-03-16T06:21:10.795Z,80.10
2023-03-16T06:23:39.790Z,79.81
2023-03-16T06:26:10.327Z,80.00
2023-03-16T06:28:42.017Z,80.23
2023-03-16T06:31:11.509Z,79.87
2023-03-16T06:33:41.898Z,80.27
2023-03-16T06:36:10.340Z,79.64
2023-03-16T06:38:43.553Z,79.17
2023-03-16T06:41:31.763Z,79.67
2023-03-16T06:44:01.074Z,78.95
2023-03-16T06:46:29.190Z,78.86
2023-03-16T06:49:02.421Z,78.69
2023-03-16T06:51:32.676Z,78.65
2023-03-16T06:54:01.468Z,78.72
2023-03-16T06:56:32.213Z,78.76
2023-03-16T06:59:01.671Z,78.81
2023-03-16T07:01:30.280Z,78.42
2023-03-16T07:03:58.290Z,77.70
2023-03-16T07:06:33.386Z,77.57
2023-03-16T07:09:01.508Z,77.48
2023-03-16T07:11:31.176Z,77.38
2023-03-16T07:14:00.295Z,77.63
2023-03-16T07:16:29.645Z,77.12
2023-03-16T07:19:02.187Z,76.87
2023-03-16T07:21:32.138Z,76.71
2023-03-16T07:24:02.412Z,76.27
2023-03-16T07:26:36.700Z,75.70
2023-03-16T07:29:06.758Z,75.54
2023-03-16T07:31:35.899Z,75.31
2023-03-16T07:34:10.593Z,75.84
2023-03-16T07:36:43.905Z,75.16
2023-03-16T07:39:14.815Z,75.37
2023-03-16T07:41:43.927Z,75.42
2023-03-16T07:44:18.524Z,74.99
2023-03-16T07:46:50.114Z,74.97
2023-03-16T07:49:18.687Z,74.58
2023-03-16T07:51:50.433Z,74.98
2023-03-16T07:54:24.352Z,74.54
2023-03-16T07:56:53.397Z,74.30
2023-03-16T07:59:41.616Z,74.41
2023-03-16T08:02:14.830Z,73.98
2023-03-16T08:04:43.612Z,74.24
2023-03-16T08:07:14.751Z,74.45
2023-03-16T08:10:05.390Z,73.30
2023-03-16T08:12:42.373Z,73.27
2023-03-16T08:15:12.021Z,73.59
2023-03-16T08:17:41.848Z,73.99
2023-03-16T08:20:16.042Z,73.11
2023-03-16T08:22:46.472Z,73.66
2023-03-16T08:25:20.876Z,73.55
2023-03-16T08:27:59.019Z,73.44
2023-03-16T08:30:28.063Z,73.24
2023-03-16T08:33:12.876Z,73.08
2023-03-16T08:35:45.151Z,72.61
2023-03-16T08:38:15.994Z,73.22
2023-03-16T08:40:49.012Z,73.08
2023-03-16T08:43:20.826Z,72.70
2023-03-16T08:46:10.027Z,72.57
2023-03-16T08:48:55.857Z,73.32
2023-03-16T08:51:27.855Z,71.56
2023-03-16T08:53:55.894Z,72.66
2023-03-16T08:56:25.171Z,72.92
2023-03-16T08:58:53.945Z,71.66
2023-03-16T09:01:22.337Z,71.48
2023-03-16T09:03:51.852Z,72.19
2023-03-16T09:06:19.924Z,71.34
2023-03-16T09:08:49.025Z,71.25
2023-03-16T09:11:19.841Z,70.44
2023-03-16T09:13:50.690Z,71.17
2023-03-16T09:16:26.033Z,70.58
2023-03-16T09:18:55.939Z,70.70
2023-03-16T09:21:24.780Z,70.64
2023-03-16T09:23:52.692Z,70.13
2023-03-16T09:26:21.492Z,71.12
2023-03-16T09:28:51.437Z,70.31
2023-03-16T09:31:20.107Z,70.00
2023-03-16T09:33:48.739Z,69.65
2023-03-16T09:36:18.181Z,69.58
2023-03-16T09:38:46.216Z,68.91
2023-03-16T09:41:31.042Z,68.46
2023-03-16T09:44:11.694Z,68.23
2023-03-16T09:46:44.069Z,67.39
2023-03-16T09:49:13.787Z,67.66
2023-03-16T09:51:46.594Z,68.17
2023-03-16T09:54:24.290Z,67.33
2023-03-16T09:56:56.705Z,67.23
2023-03-16T09:59:27.287Z,66.71
2023-03-16T10:02:06.381Z,66.99
2023-03-16T10:04:46.248Z,66.45
2023-03-16T10:07:21.676Z,68.28
2023-03-16T10:09:57.663Z,65.52
2023-03-16T10:12:33.545Z,65.90
2023-03-16T10:15:09.487Z,66.01
2023-03-16T10:17:44.729Z,66.12
2023-03-16T10:20:17.615Z,65.78
2023-03-16T10:22:48.244Z,65.67
2023-03-16T10:25:23.196Z,64.41
2023-03-16T10:27:52.386Z,64.43
2023-03-16T10:30:25.899Z,62.87
2023-03-16T10:32:55.270Z,63.71
2023-03-16T10:35:42.719Z,63.21
2023-03-16T10:38:29.888Z,62.99
2023-03-16T10:40:58.744Z,62.96
2023-03-16T10:43:27.308Z,64.14
2023-03-16T10:46:03.109Z,62.53
2023-03-16T10:48:35.495Z,63.01
2023-03-16T10:51:09.480Z,62.92
2023-03-16T10:53:44.236Z,64.34
2023-03-16T10:56:20.124Z,62.97
2023-03-16T10:58:48.115Z,62.55
2023-03-16T11:01:22.792Z,63.19
2023-03-16T11:03:53.480Z,63.13
2023-03-16T11:06:25.453Z,62.76
2023-03-16T11:08:54.972Z,61.53
2023-03-16T11:11:31.508Z,61.68
2023-03-16T11:14:02.890Z,62.03
2023-03-16T11:16:38.870Z,62.47
2023-03-16T11:19:18.954Z,64.36
2023-03-16T11:21:55.503Z,62.91
2023-03-16T11:24:28.731Z,63.93
2023-03-16T11:27:00.381Z,63.16
2023-03-16T11:29:33.795Z,62.08
2023-03-16T11:32:07.833Z,62.91
2023-03-16T11:34:36.493Z,63.16
2023-03-16T11:37:13.574Z,62.13
2023-03-16T11:39:53.943Z,62.57
2023-03-16T11:42:32.744Z,62.88
2023-03-16T11:45:12.493Z,62.67
2023-03-16T11:48:01.600Z,62.11
2023-03-16T11:50:38.253Z,62.96
2023-03-16T11:53:17.559Z,62.73
2023-03-16T11:55:51.895Z,63.17
2023-03-16T11:58:33.615Z,62.39
2023-03-16T12:01:13.239Z,62.75
2023-03-16T12:04:02.501Z,62.37
2023-03-16T12:06:47.644Z,62.23
2023-03-16T12:09:51.891Z,62.63
2023-03-16T12:12:42.766Z,63.27
2023-03-16T12:15:38.914Z,62.44
2023-03-16T12:18:15.442Z,62.25
2023-03-16T12:20:55.852Z,61.08
2023-03-16T12:23:30.470Z,60.26
2023-03-16T12:26:01.424Z,59.51
2023-03-16T12:28:31.841Z,59.65
2023-03-16T12:31:10.570Z,59.95
2023-03-16T12:34:05.211Z,60.35
2023-03-16T12:37:00.513Z,60.02
2023-03-16T12:39:54.236Z,60.60
2023-03-16T12:42:54.022Z,59.56
2023-03-16T12:45:36.724Z,59.11
2023-03-16T12:48:17.741Z,58.81
2023-03-16T12:50:52.132Z,57.40
2023-03-16T12:53:30.530Z,57.79
2023-03-16T12:56:09.177Z,58.05
2023-03-16T12:58:37.981Z,58.75
2023-03-16T13:01:11.935Z,57.61
2023-03-16T13:03:40.825Z,58.88
2023-03-16T13:06:19.169Z,58.73
2023-03-16T13:08:53.834Z,59.31
2023-03-16T13:11:21.858Z,58.75
2023-03-16T13:13:52.548Z,58.43
2023-03-16T13:16:29.116Z,58.76
2023-03-16T13:18:58.512Z,58.88
2023-03-16T13:21:37.859Z,59.06
2023-03-16T13:24:28.541Z,57.49
2023-03-16T13:27:01.434Z,58.22
2023-03-16T13:29:31.919Z,57.30
2023-03-16T13:32:02.763Z,57.46
2023-03-16T13:34:33.299Z,57.35
2023-03-16T13:37:02.976Z,58.17
2023-03-16T13:39:33.746Z,58.98
2023-03-16T13:42:05.179Z,59.33
2023-03-16T13:44:34.921Z,58.04
2023-03-16T13:47:08.013Z,57.08
2023-03-16T13:49:44.929Z,56.62
2023-03-16T13:52:19.025Z,56.64
2023-03-16T13:54:50.041Z,53.47
2023-03-16T13:57:22.334Z,54.04
2023-03-16T13:59:51.288Z,54.67
2023-03-16T14:02:22.510Z,54.98
2023-03-16T14:04:51.533Z,55.56
2023-03-16T14:07:21.745Z,57.10
2023-03-16T14:09:52.953Z,58.30
2023-03-16T14:12:21.198Z,58.23
2023-03-16T14:14:51.646Z,57.80
2023-03-16T14:17:22.580Z,58.62
2023-03-16T14:19:52.208Z,58.55
2023-03-16T14:22:24.235Z,58.25
2023-03-16T14:24:59.237Z,59.59
2023-03-16T14:27:34.257Z,58.70
2023-03-16T14:30:15.685Z,58.46
2023-03-16T14:32:57.117Z,58.42
2023-03-16T14:35:28.704Z,59.42
2023-03-16T14:37:58.337Z,58.86
2023-03-16T14:40:30.897Z,58.46
2023-03-16T14:43:04.135Z,58.51
2023-03-16T14:45:35.158Z,58.17
2023-03-16T14:48:07.732Z,57.58
2023-03-16T14:50:35.888Z,57.81
2023-03-16T14:53:05.045Z,58.38
2023-03-16T14:55:35.356Z,58.31
2023-03-16T14:58:03.560Z,57.77
2023-03-16T15:00:37.179Z,58.31
2023-03-16T15:03:15.738Z,56.43
2023-03-16T15:05:47.082Z,55.09
2023-03-16T15:08:18.685Z,55.32
2023-03-16T15:10:48.512Z,54.41
2023-03-16T15:13:35.222Z,53.30
2023-03-16T15:16:04.453Z,53.75
2023-03-16T15:18:33.538Z,53.74
2023-03-16T15:21:03.608Z,54.54
2023-03-16T15:23:32.250Z,54.93
2023-03-16T15:26:03.416Z,55.88
2023-03-16T15:28:31.475Z,56.78
2023-03-16T15:31:02.049Z,58.37
2023-03-16T15:33:31.274Z,59.79
2023-03-16T15:36:01.957Z,60.19
2023-03-16T15:38:32.893Z,60.02
2023-03-16T15:41:02.495Z,58.41
2023-03-16T15:43:32.005Z,58.37
2023-03-16T15:46:01.392Z,57.52
2023-03-16T15:48:29.308Z,57.21
2023-03-16T15:51:01.752Z,56.80
2023-03-16T15:53:35.694Z,57.38
2023-03-16T15:56:07.667Z,58.07
2023-03-16T15:58:38.073Z,58.89
2023-03-16T16:01:09.298Z,58.67
2023-03-16T16:03:38.217Z,58.18
2023-03-16T16:06:11.697Z,57.43
2023-03-16T16:08:39.928Z,58.47
2023-03-16T16:11:16.192Z,56.12
2023-03-16T16:13:45.315Z,57.75
2023-03-16T16:16:14.921Z,59.37
2023-03-16T16:18:43.858Z,59.75
2023-03-16T16:21:18.003Z,59.55
2023-03-16T16:23:48.203Z,59.46
2023-03-16T16:26:27.872Z,59.69
2023-03-16T16:29:03.716Z,59.24
2023-03-16T16:31:31.965Z,60.85
2023-03-16T16:34:00.072Z,61.71
2023-03-16T16:36:32.902Z,61.47
2023-03-16T16:39:01.860Z,62.03
2023-03-16T16:41:33.351Z,62.12
2023-03-16T16:44:08.254Z,62.64
2023-03-16T16:46:41.034Z,62.38
2023-03-16T16:49:15.621Z,62.88
2023-03-16T16:51:43.835Z,63.38
2023-03-16T16:54:17.640Z,63.35
2023-03-16T16:56:47.733Z,63.63
2023-03-16T16:59:20.722Z,64.09
2023-03-16T17:01:50.964Z,64.08
2023-03-16T17:04:23.604Z,64.89
2023-03-16T17:06:55.265Z,64.85
2023-03-16T17:09:23.371Z,64.96
2023-03-16T17:11:54.152Z,65.21
2023-03-16T17:14:24.192Z,65.81
2023-03-16T17:16:53.442Z,65.82
2023-03-16T17:19:23.570Z,66.20
2023-03-16T17:21:52.693Z,66.82
2023-03-16T17:24:21.021Z,67.08
2023-03-16T17:26:52.746Z,67.43
2023-03-16T17:29:26.099Z,67.72
2023-03-16T17:31:54.569Z,67.95
2023-03-16T17:34:24.653Z,68.02
2023-03-16T17:36:53.486Z,67.89
2023-03-16T17:39:24.508Z,69.11
2023-03-16T17:41:57.834Z,68.61
2023-03-16T17:44:31.223Z,68.80
2023-03-16T17:46:59.974Z,69.19
2023-03-16T17:49:30.661Z,69.32
2023-03-16T17:52:01.385Z,69.48
2023-03-16T17:54:29.342Z,70.00
2023-03-16T17:56:57.920Z,70.04
2023-03-16T17:59:27.581Z,70.27
2023-03-16T18:01:58.158Z,70.47
2023-03-16T18:04:27.497Z,70.51
2023-03-16T18:06:56.515Z,69.94
2023-03-16T18:09:24.916Z,70.19
2023-03-16T18:11:53.542Z,70.49
2023-03-16T18:14:34.914Z,70.94
2023-03-16T18:17:17.370Z,70.73
2023-03-16T18:19:46.986Z,71.54
2023-03-16T18:22:20.007Z,71.17
2023-03-16T18:24:49.690Z,71.56
2023-03-16T18:27:18.029Z,71.53
2023-03-16T18:29:47.634Z,72.21
2023-03-16T18:32:22.914Z,72.18
2023-03-16T18:34:53.229Z,72.54
2023-03-16T18:37:25.654Z,73.01
2023-03-16T18:39:55.454Z,73.27
2023-03-16T18:42:25.792Z,73.26
2023-03-16T18:44:54.037Z,72.85
2023-03-16T18:47:31.837Z,73.53
2023-03-16T18:50:00.507Z,73.68
2023-03-16T18:52:29.317Z,73.77
2023-03-16T18:54:58.718Z,73.94
2023-03-16T18:57:29.452Z,74.18
2023-03-16T18:59:58.284Z,74.46
2023-03-16T19:02:35.086Z,74.74
2023-03-16T19:05:05.995Z,74.80
2023-03-16T19:07:55.355Z,74.88
2023-03-16T19:10:26.349Z,74.86
2023-03-16T19:12:55.369Z,75.07
2023-03-16T19:15:25.988Z,75.02
2023-03-16T19:17:56.669Z,75.08
2023-03-16T19:20:25.817Z,75.36
2023-03-16T19:23:00.857Z,75.39
2023-03-16T19:25:32.128Z,75.54
2023-03-16T19:28:01.589Z,75.58
2023-03-16T19:30:31.517Z,75.60
2023-03-16T19:33:02.334Z,76.00
2023-03-16T19:35:50.341Z,76.20
2023-03-16T19:38:20.134Z,76.39
2023-03-16T19:40:49.389Z,76.16
2023-03-16T19:43:19.747Z,76.39
2023-03-16T19:45:49.902Z,76.34
2023-03-16T19:48:23.083Z,76.46
2023-03-16T19:50:52.116Z,76.56
2023-03-16T19:53:22.524Z,76.64
2023-03-16T19:56:15.920Z,76.64
2023-03-16T19:58:46.209Z,76.75
2023-03-16T20:01:19.532Z,76.98
2023-03-16T20:03:51.709Z,76.92
2023-03-16T20:06:23.887Z,77.12
2023-03-16T20:08:52.875Z,76.99
2023-03-16T20:11:27.762Z,77.20
2023-03-16T20:14:22.102Z,77.19
2023-03-16T20:16:51.502Z,77.23
2023-03-16T20:19:22.461Z,77.21
2023-03-16T20:21:51.802Z,77.30
2023-03-16T20:24:22.237Z,77.33
2023-03-16T20:26:51.883Z,77.09
2023-03-16T20:29:25.082Z,76.95
2023-03-16T20:31:54.124Z,77.33
2023-03-16T20:34:25.788Z,77.39
2023-03-16T20:36:54.829Z,77.28
2023-03-16T20:39:22.749Z,77.11
2023-03-16T20:41:52.107Z,76.99
2023-03-16T20:44:23.999Z,76.67
2023-03-16T20:46:54.140Z,76.74
2023-03-16T20:49:40.482Z,76.52
2023-03-16T20:52:16.535Z,76.77
2023-03-16T20:54:45.403Z,76.50
2023-03-16T20:57:17.324Z,76.71
2023-03-16T20:59:49.763Z,76.73
2023-03-16T21:02:27.834Z,76.82
2023-03-16T21:04:59.514Z,76.52
2023-03-16T21:07:27.968Z,76.35
2023-03-16T21:09:56.497Z,76.39
2023-03-16T21:12:28.609Z,76.22
2023-03-16T21:14:57.431Z,75.98
2023-03-16T21:17:31.327Z,76.51
2023-03-16T21:20:01.722Z,76.69
2023-03-16T21:22:31.924Z,76.12
2023-03-16T21:25:00.417Z,76.19
2023-03-16T21:27:30.496Z,76.19
2023-03-16T21:30:00.951Z,76.23
2023-03-16T21:32:30.966Z,76.24
2023-03-16T21:35:01.050Z,76.18
2023-03-16T21:37:30.387Z,76.68
2023-03-16T21:40:01.174Z,76.54
2023-03-16T21:42:30.020Z,76.51
2023-03-16T21:44:57.981Z,76.57
2023-03-16T21:47:29.508Z,76.72
2023-03-16T21:50:01.685Z,76.34
2023-03-16T21:52:31.375Z,76.33
2023-03-16T21:55:00.868Z,76.65
2023-03-16T21:57:28.890Z,76.37
2023-03-16T21:59:58.383Z,76.41
2023-03-16T22:02:28.727Z,76.53
2023-03-16T22:04:58.338Z,76.51
2023-03-16T22:07:27.818Z,76.17
2023-03-16T22:09:55.954Z,76.29
2023-03-16T22:12:24.381Z,76.25
2023-03-16T22:14:52.510Z,76.42
2023-03-16T22:17:22.979Z,76.45
2023-03-16T22:19:51.987Z,76.54
2023-03-16T22:22:19.955Z,76.45
2023-03-16T22:24:50.286Z,76.39
2023-03-16T22:27:27.990Z,76.13
2023-03-16T22:29:56.185Z,75.96
2023-03-16T22:32:24.287Z,76.06
2023-03-16T22:34:55.930Z,76.02
2023-03-16T22:37:28.591Z,76.13
2023-03-16T22:39:58.639Z,76.50
2023-03-16T22:42:33.519Z,76.28
2023-03-16T22:45:05.800Z,76.34
2023-03-16T22:47:37.204Z,76.60
2023-03-16T22:50:06.861Z,76.01
2023-03-16T22:52:37.823Z,76.11
2023-03-16T22:55:09.157Z,76.06
2023-03-16T22:57:38.829Z,75.81
2023-03-16T23:00:11.173Z,75.81
2023-03-16T23:02:40.506Z,75.75
2023-03-16T23:05:22.571Z,75.45
2023-03-16T23:07:52.466Z,75.72
2023-03-16T23:10:25.571Z,75.71
2023-03-16T23:12:55.619Z,75.70
2023-03-16T23:15:26.433Z,75.64
2023-03-16T23:17:56.559Z,75.53
2023-03-16T23:20:29.043Z,75.73
2023-03-16T23:23:01.209Z,75.52
2023-03-16T23:25:31.464Z,75.30
2023-03-16T23:28:03.212Z,75.17
2023-03-16T23:30:36.230Z,75.21
2023-03-16T23:33:06.819Z,75.30
2023-03-16T23:35:36.943Z,75.28
2023-03-16T23:38:06.776Z,75.56
2023-03-16T23:40:38.349Z,75.43
2023-03-16T23:43:09.029Z,75.34
2023-03-16T23:45:42.090Z,75.54
2023-03-16T23:48:17.983Z,75.58
2023-03-16T23:50:49.413Z,75.53
2023-03-16T23:53:23.484Z,75.10
2023-03-16T23:55:53.426Z,75.42
2023-03-16T23:58:23.792Z,75.43
